createdAt,value
2024-05-09T00:02:20.385Z,6.73
2024-05-09T00:05:26.067Z,6.66
2024-05-09T00:08:31.860Z,6.70
2024-05-09T00:11:37.747Z,6.76
2024-05-09T00:14:43.648Z,6.88
2024-05-09T00:17:52.106Z,6.92
2024-05-09T00:20:58.167Z,6.87
2024-05-09T00:24:03.899Z,6.94
2024-05-09T00:27:11.263Z,7.02
2024-05-09T00:30:24.410Z,6.93
2024-05-09T00:33:40.019Z,6.93
2024-05-09T00:36:45.753Z,6.90
2024-05-09T00:39:51.331Z,6.88
2024-05-09T00:42:56.883Z,6.93
2024-05-09T00:46:02.637Z,6.86
2024-05-09T00:49:12.298Z,6.78
2024-05-09T00:52:18.085Z,6.92
2024-05-09T00:55:24.056Z,6.90
2024-05-09T00:58:31.247Z,6.79
2024-05-09T01:01:37.512Z,6.73
2024-05-09T01:04:46.363Z,6.65
2024-05-09T01:09:07.719Z,6.77
2024-05-09T01:12:13.613Z,6.70
2024-05-09T01:15:19.533Z,6.73
2024-05-09T01:18:25.274Z,6.77
2024-05-09T01:21:33.593Z,6.69
2024-05-09T01:24:41.782Z,6.60
2024-05-09T01:27:47.451Z,6.63
2024-05-09T01:30:53.090Z,6.66
2024-05-09T01:33:58.760Z,6.62
2024-05-09T01:37:04.312Z,6.56
2024-05-09T01:40:18.533Z,6.63
2024-05-09T01:43:28.049Z,6.48
2024-05-09T01:46:33.591Z,6.51
2024-05-09T01:49:40.228Z,6.62
2024-05-09T01:52:45.851Z,6.60
2024-05-09T01:55:54.160Z,6.61
2024-05-09T01:58:59.782Z,6.54
2024-05-09T02:02:05.525Z,6.57
2024-05-09T02:05:11.831Z,6.57
2024-05-09T02:08:18.933Z,6.56
2024-05-09T02:11:27.574Z,6.45
2024-05-09T02:14:33.258Z,6.50
2024-05-09T02:17:39.153Z,6.50
2024-05-09T02:20:45.285Z,6.44
2024-05-09T02:23:50.944Z,6.31
2024-05-09T02:26:59.135Z,6.43
2024-05-09T02:30:09.910Z,6.39
2024-05-09T02:33:21.269Z,6.37
2024-05-09T02:36:27.196Z,6.29
2024-05-09T02:39:30.136Z,6.33
2024-05-09T02:42:38.367Z,6.34
2024-05-09T02:45:41.722Z,6.28
2024-05-09T02:48:47.582Z,6.38
2024-05-09T02:51:53.337Z,6.32
2024-05-09T02:54:56.359Z,6.37
2024-05-09T02:58:05.015Z,6.53
2024-05-09T03:01:08.033Z,6.62
2024-05-09T03:04:13.629Z,6.51
2024-05-09T03:07:20.259Z,6.45
2024-05-09T03:10:28.500Z,6.45
2024-05-09T03:13:37.505Z,6.38
2024-05-09T03:16:40.423Z,6.38
2024-05-09T03:19:46.462Z,6.37
2024-05-09T03:22:54.048Z,6.46
2024-05-09T03:25:58.682Z,6.42
2024-05-09T03:29:07.020Z,6.43
2024-05-09T03:32:10.248Z,6.40
2024-05-09T03:35:16.061Z,6.42
2024-05-09T03:38:21.942Z,6.48
2024-05-09T03:41:27.676Z,6.53
2024-05-09T03:44:36.037Z,6.45
2024-05-09T03:47:39.005Z,6.52
2024-05-09T03:50:45.071Z,6.45
2024-05-09T03:53:48.171Z,6.48
2024-05-09T03:56:54.481Z,6.44
2024-05-09T04:00:00.061Z,6.49
2024-05-09T04:03:07.676Z,6.47
2024-05-09T04:06:13.122Z,6.52
2024-05-09T04:09:18.694Z,6.56
2024-05-09T04:12:21.827Z,6.56
2024-05-09T04:15:30.250Z,6.61
2024-05-09T04:18:36.060Z,6.70
2024-05-09T04:21:39.081Z,6.73
2024-05-09T04:24:44.618Z,6.70
2024-05-09T04:27:47.932Z,6.78
2024-05-09T04:30:56.188Z,6.85
2024-05-09T04:33:59.279Z,6.81
2024-05-09T04:37:05.150Z,6.76
2024-05-09T04:40:17.186Z,6.82
2024-05-09T04:43:29.285Z,6.83
2024-05-09T04:46:34.884Z,6.80
2024-05-09T04:49:40.491Z,6.71
2024-05-09T04:52:46.464Z,6.75
2024-05-09T04:55:51.351Z,6.77
2024-05-09T04:58:57.083Z,6.84
2024-05-09T05:02:02.974Z,6.89
2024-05-09T05:05:09.645Z,7.01
2024-05-09T05:08:17.437Z,7.20
2024-05-09T05:11:21.482Z,7.39
2024-05-09T05:14:27.398Z,7.41
2024-05-09T05:17:35.984Z,7.28
2024-05-09T05:20:39.289Z,7.31
2024-05-09T05:23:44.979Z,7.34
2024-05-09T05:26:48.011Z,7.41
2024-05-09T05:29:53.600Z,7.52
2024-05-09T05:32:59.368Z,7.37
2024-05-09T05:36:05.117Z,7.38
2024-05-09T05:39:08.027Z,7.47
2024-05-09T05:42:13.601Z,7.35
2024-05-09T05:45:16.704Z,7.31
2024-05-09T05:48:25.239Z,7.38
2024-05-09T05:51:28.228Z,7.41
2024-05-09T05:54:33.813Z,7.48
2024-05-09T05:57:39.372Z,7.55
2024-05-09T06:00:43.055Z,7.69
2024-05-09T06:03:51.640Z,7.69
2024-05-09T06:06:57.336Z,7.74
2024-05-09T06:10:05.281Z,7.66
2024-05-09T06:13:14.153Z,7.80
2024-05-09T06:16:17.518Z,7.80
2024-05-09T06:19:26.026Z,7.90
2024-05-09T06:22:29.232Z,7.96
2024-05-09T06:25:34.935Z,7.80
2024-05-09T06:28:38.084Z,7.79
2024-05-09T06:31:43.831Z,7.73
2024-05-09T06:34:49.758Z,7.67
2024-05-09T06:37:55.687Z,7.57
2024-05-09T06:40:58.759Z,7.57
2024-05-09T06:44:04.399Z,7.66
2024-05-09T06:47:10.183Z,7.64
2024-05-09T06:50:23.956Z,7.76
2024-05-09T06:53:33.602Z,7.73
2024-05-09T06:56:36.678Z,7.76
2024-05-09T06:59:42.315Z,7.82
2024-05-09T07:02:48.229Z,7.86
2024-05-09T07:05:56.671Z,7.96
2024-05-09T07:08:59.660Z,8.03
2024-05-09T07:12:05.355Z,8.10
2024-05-09T07:15:08.634Z,8.13
2024-05-09T07:18:17.353Z,8.11
2024-05-09T07:21:24.364Z,8.21
2024-05-09T07:24:29.953Z,8.10
2024-05-09T07:27:33.262Z,8.32
2024-05-09T07:30:38.854Z,8.27
2024-05-09T07:33:44.552Z,8.13
2024-05-09T07:36:52.775Z,8.39
2024-05-09T07:39:55.736Z,8.50
2024-05-09T07:43:01.346Z,8.65
2024-05-09T07:47:03.960Z,8.70
2024-05-09T07:53:33.829Z,8.80
2024-05-09T07:56:04.291Z,8.84
2024-05-09T07:59:07.264Z,8.99
2024-05-09T08:02:13.064Z,9.05
2024-05-09T08:05:19.073Z,9.17
2024-05-09T08:08:24.790Z,9.28
2024-05-09T08:11:30.480Z,9.41
2024-05-09T08:14:33.881Z,9.44
2024-05-09T08:17:39.632Z,9.63
2024-05-09T08:20:46.060Z,9.61
2024-05-09T08:23:51.740Z,9.74
2024-05-09T08:26:57.241Z,9.52
2024-05-09T08:30:00.333Z,9.66
2024-05-09T08:33:07.577Z,9.69
2024-05-09T08:36:11.006Z,9.77
2024-05-09T08:39:21.135Z,9.79
2024-05-09T08:42:24.726Z,10.07
2024-05-09T08:45:30.560Z,10.20
2024-05-09T08:48:34.969Z,10.29
2024-05-09T08:51:40.586Z,10.39
2024-05-09T08:54:46.148Z,10.36
2024-05-09T08:57:51.817Z,10.48
2024-05-09T09:00:55.442Z,10.52
2024-05-09T09:04:04.077Z,10.37
2024-05-09T09:07:07.359Z,10.47
2024-05-09T09:10:24.891Z,10.43
2024-05-09T09:13:33.192Z,10.41
2024-05-09T09:16:39.093Z,10.55
2024-05-09T09:19:42.501Z,10.61
2024-05-09T09:22:48.337Z,10.77
2024-05-09T09:25:54.011Z,10.86
2024-05-09T09:29:03.171Z,10.93
2024-05-09T09:32:10.732Z,10.83
2024-05-09T09:35:13.676Z,10.87
2024-05-09T09:38:21.359Z,10.87
2024-05-09T09:41:30.474Z,11.02
2024-05-09T09:44:39.556Z,11.02
2024-05-09T09:47:46.047Z,11.02
2024-05-09T09:50:52.089Z,11.13
2024-05-09T09:53:55.691Z,11.21
2024-05-09T09:57:04.161Z,11.11
2024-05-09T10:00:11.765Z,11.18
2024-05-09T10:03:20.256Z,11.18
2024-05-09T10:06:23.716Z,11.31
2024-05-09T10:09:29.647Z,11.11
2024-05-09T10:12:35.635Z,11.35
2024-05-09T10:15:48.270Z,11.38
2024-05-09T10:18:51.561Z,11.33
2024-05-09T10:22:04.375Z,11.21
2024-05-09T10:25:10.824Z,11.20
2024-05-09T10:28:16.563Z,11.21
2024-05-09T10:31:23.624Z,11.31
2024-05-09T10:34:37.362Z,11.29
2024-05-09T10:37:40.351Z,11.32
2024-05-09T10:40:46.533Z,11.43
2024-05-09T10:43:52.398Z,11.43
2024-05-09T10:46:58.124Z,11.52
2024-05-09T10:50:01.260Z,11.66
2024-05-09T10:53:07.405Z,11.62
2024-05-09T10:56:11.054Z,11.65
2024-05-09T10:59:19.280Z,11.64
2024-05-09T11:02:22.538Z,11.63
2024-05-09T11:05:28.638Z,11.74
2024-05-09T11:08:32.469Z,11.82
2024-05-09T11:11:38.329Z,11.97
2024-05-09T11:14:53.098Z,12.05
2024-05-09T11:17:58.879Z,12.12
2024-05-09T11:21:02.475Z,11.97
2024-05-09T11:24:11.212Z,11.96
2024-05-09T11:27:14.747Z,11.87
2024-05-09T11:30:29.803Z,11.86
2024-05-09T11:33:40.254Z,11.96
2024-05-09T11:36:46.097Z,11.95
2024-05-09T11:39:49.082Z,11.96
2024-05-09T11:42:54.789Z,12.03
2024-05-09T11:46:04.010Z,11.97
2024-05-09T11:49:10.176Z,12.08
2024-05-09T11:52:13.801Z,12.00
2024-05-09T11:55:20.185Z,12.14
2024-05-09T11:58:23.751Z,12.27
2024-05-09T12:01:32.433Z,12.37
2024-05-09T12:04:38.427Z,12.16
2024-05-09T12:07:44.833Z,12.39
2024-05-09T12:10:50.645Z,12.46
2024-05-09T12:13:53.741Z,12.51
2024-05-09T12:17:03.888Z,12.49
2024-05-09T12:20:14.282Z,12.44
2024-05-09T12:23:26.692Z,12.51
2024-05-09T12:26:29.755Z,12.52
2024-05-09T12:29:38.247Z,12.51
2024-05-09T12:32:46.310Z,12.46
2024-05-09T12:35:51.991Z,12.51
2024-05-09T12:38:55.159Z,12.49
2024-05-09T12:42:00.853Z,12.43
2024-05-09T12:45:03.974Z,12.46
2024-05-09T12:48:13.256Z,12.33
2024-05-09T12:51:19.205Z,12.28
2024-05-09T12:54:22.188Z,12.27
2024-05-09T12:57:28.164Z,12.34
2024-05-09T13:00:33.957Z,12.18
2024-05-09T13:03:43.003Z,12.20
2024-05-09T13:06:46.083Z,12.03
2024-05-09T13:09:51.777Z,12.16
2024-05-09T13:12:54.745Z,12.11
2024-05-09T13:16:00.491Z,12.14
2024-05-09T13:19:06.218Z,12.13
2024-05-09T13:22:12.033Z,12.20
2024-05-09T13:25:15.235Z,12.20
2024-05-09T13:28:22.917Z,12.23
2024-05-09T13:31:26.428Z,12.13
2024-05-09T13:34:34.836Z,12.19
2024-05-09T13:37:37.833Z,12.27
2024-05-09T13:40:44.188Z,12.20
2024-05-09T13:43:49.968Z,12.19
2024-05-09T13:46:53.181Z,12.28
2024-05-09T13:50:02.669Z,12.20
2024-05-09T13:53:07.622Z,12.29
2024-05-09T13:56:14.162Z,12.33
2024-05-09T13:59:17.205Z,12.39
2024-05-09T14:02:23.030Z,12.32
2024-05-09T14:05:28.749Z,12.37
2024-05-09T14:08:34.435Z,12.43
2024-05-09T14:11:37.596Z,12.44
2024-05-09T14:14:43.199Z,12.40
2024-05-09T14:17:47.442Z,12.24
2024-05-09T14:20:55.650Z,12.33
2024-05-09T14:24:01.201Z,12.41
2024-05-09T14:27:07.473Z,12.45
2024-05-09T14:30:22.083Z,12.37
2024-05-09T14:33:30.898Z,12.45
2024-05-09T14:36:39.272Z,12.54
2024-05-09T14:39:42.272Z,12.50
2024-05-09T14:42:47.967Z,12.60
2024-05-09T14:45:51.008Z,12.52
2024-05-09T14:48:58.508Z,12.60
2024-05-09T14:52:07.531Z,12.63
2024-05-09T14:55:12.324Z,12.69
2024-05-09T14:58:18.527Z,12.58
2024-05-09T15:01:24.174Z,12.62
2024-05-09T15:04:30.378Z,12.72
2024-05-09T15:07:36.132Z,12.71
2024-05-09T15:10:41.725Z,12.77
2024-05-09T15:13:44.782Z,12.74
2024-05-09T15:16:50.794Z,12.65
2024-05-09T15:19:53.958Z,12.63
2024-05-09T15:23:02.405Z,12.79
2024-05-09T15:26:05.712Z,12.79
2024-05-09T15:29:11.318Z,12.81
2024-05-09T15:32:14.871Z,12.87
2024-05-09T15:35:20.837Z,12.84
2024-05-09T15:38:29.307Z,12.69
2024-05-09T15:41:34.872Z,12.58
2024-05-09T15:44:37.858Z,12.56
2024-05-09T15:47:43.635Z,12.58
2024-05-09T15:50:46.703Z,12.66
2024-05-09T15:53:54.958Z,12.51
2024-05-09T15:56:57.959Z,12.32
2024-05-09T16:00:05.905Z,12.45
2024-05-09T16:03:17.857Z,12.30
2024-05-09T16:06:23.520Z,12.40
2024-05-09T16:09:29.142Z,12.44
2024-05-09T16:12:34.805Z,12.31
2024-05-09T16:15:40.651Z,12.38
2024-05-09T16:18:43.932Z,12.35
2024-05-09T16:21:49.588Z,12.33
2024-05-09T16:24:58.049Z,12.07
2024-05-09T16:28:01.918Z,12.23
2024-05-09T16:31:08.290Z,12.10
2024-05-09T16:34:11.519Z,12.06
2024-05-09T16:37:17.811Z,12.05
2024-05-09T16:40:34.694Z,12.11
2024-05-09T16:43:41.989Z,12.20
2024-05-09T16:46:47.677Z,12.28
2024-05-09T16:49:50.675Z,12.22
2024-05-09T16:52:56.238Z,12.05
2024-05-09T16:56:02.426Z,11.92
2024-05-09T16:59:08.161Z,11.98
2024-05-09T17:02:14.128Z,12.00
2024-05-09T17:05:21.741Z,11.88
2024-05-09T17:08:24.773Z,12.00
2024-05-09T17:11:34.562Z,12.00
2024-05-09T17:14:40.770Z,11.87
2024-05-09T17:17:47.213Z,11.80
2024-05-09T17:20:53.110Z,11.68
2024-05-09T17:23:56.076Z,11.69
2024-05-09T17:27:04.499Z,11.48
2024-05-09T17:33:15.473Z,11.36
2024-05-09T17:36:21.186Z,11.35
2024-05-09T17:39:24.885Z,11.16
2024-05-09T17:42:33.297Z,11.06
2024-05-09T17:45:37.731Z,11.16
2024-05-09T17:48:43.552Z,11.18
2024-05-09T17:51:55.220Z,10.91
2024-05-09T17:54:58.557Z,10.79
2024-05-09T17:58:07.608Z,10.88
2024-05-09T18:01:14.043Z,11.04
2024-05-09T18:04:17.920Z,10.89
2024-05-09T18:07:23.725Z,10.90
2024-05-09T18:10:35.563Z,10.92
2024-05-09T18:13:45.863Z,10.90
2024-05-09T18:16:51.434Z,11.01
2024-05-09T18:19:54.479Z,10.99
2024-05-09T18:23:00.152Z,11.00
2024-05-09T18:26:03.340Z,10.87
2024-05-09T18:29:12.274Z,10.94
2024-05-09T18:32:18.202Z,11.00
2024-05-09T18:35:21.216Z,10.91
2024-05-09T18:38:27.108Z,10.93
2024-05-09T18:41:30.390Z,11.03
2024-05-09T18:44:38.653Z,11.07
2024-05-09T18:47:44.338Z,11.11
2024-05-09T18:50:48.433Z,11.06
2024-05-09T18:53:55.287Z,10.98
2024-05-09T18:56:58.272Z,11.03
2024-05-09T19:00:08.781Z,11.01
2024-05-09T19:03:16.635Z,10.92
2024-05-09T19:06:24.792Z,10.96
2024-05-09T19:09:27.976Z,10.99
2024-05-09T19:12:33.622Z,10.93
2024-05-09T19:15:40.138Z,10.97
2024-05-09T19:18:46.407Z,10.98
2024-05-09T19:21:49.578Z,11.00
2024-05-09T19:24:55.605Z,11.11
2024-05-09T19:27:58.682Z,11.13
2024-05-09T19:31:07.156Z,11.09
2024-05-09T19:34:10.263Z,10.99
2024-05-09T19:37:16.090Z,11.02
2024-05-09T19:40:25.130Z,11.08
2024-05-09T19:43:36.799Z,11.01
2024-05-09T19:46:42.505Z,11.09
2024-05-09T19:49:48.335Z,11.14
2024-05-09T19:52:51.256Z,11.09
2024-05-09T19:55:58.041Z,11.01
2024-05-09T19:59:04.341Z,11.11
2024-05-09T20:02:10.104Z,11.05
2024-05-09T20:05:15.909Z,11.14
2024-05-09T20:08:18.950Z,11.13
2024-05-09T20:11:24.970Z,11.17
2024-05-09T20:14:27.871Z,11.15
2024-05-09T20:17:36.216Z,11.21
2024-05-09T20:20:42.485Z,11.12
2024-05-09T20:23:49.690Z,11.14
2024-05-09T20:26:52.700Z,11.20
2024-05-09T20:29:58.561Z,11.19
2024-05-09T20:33:07.184Z,11.24
2024-05-09T20:36:14.201Z,11.13
2024-05-09T20:39:20.049Z,11.18
2024-05-09T20:42:25.678Z,11.12
2024-05-09T20:45:28.825Z,11.23
2024-05-09T20:48:37.268Z,11.13
2024-05-09T20:51:40.363Z,11.24
2024-05-09T20:54:46.131Z,11.28
2024-05-09T20:57:49.160Z,11.28
2024-05-09T21:00:54.878Z,11.25
2024-05-09T21:04:01.013Z,11.26
2024-05-09T21:07:07.100Z,11.38
2024-05-09T21:10:15.684Z,11.34
2024-05-09T21:13:25.321Z,11.39
2024-05-09T21:16:28.408Z,11.38
2024-05-09T21:19:36.947Z,11.45
2024-05-09T21:22:39.944Z,11.44
2024-05-09T21:25:45.533Z,11.43
2024-05-09T21:28:48.449Z,11.37
2024-05-09T21:31:54.191Z,11.47
2024-05-09T21:35:02.481Z,11.44
2024-05-09T21:38:05.949Z,11.44
2024-05-09T21:41:12.135Z,11.39
2024-05-09T21:44:15.129Z,11.48
2024-05-09T21:47:21.070Z,11.41
2024-05-09T21:50:36.881Z,11.48
2024-05-09T21:53:43.648Z,11.51
2024-05-09T21:56:49.278Z,11.50
2024-05-09T21:59:54.938Z,11.55
2024-05-09T22:02:58.172Z,11.53
2024-05-09T22:06:06.589Z,11.50
2024-05-09T22:09:09.581Z,11.58
2024-05-09T22:12:15.279Z,11.62
2024-05-09T22:15:18.212Z,11.63
2024-05-09T22:18:23.988Z,11.45
2024-05-09T22:21:29.686Z,11.53
2024-05-09T22:24:35.362Z,11.53
2024-05-09T22:27:38.326Z,11.54
2024-05-09T22:30:44.190Z,11.57
2024-05-09T22:33:50.146Z,11.60
2024-05-09T22:36:55.894Z,11.56
2024-05-09T22:40:03.213Z,11.64
2024-05-09T22:43:07.839Z,11.66
2024-05-09T22:46:13.597Z,11.73
2024-05-09T22:49:16.947Z,11.67
2024-05-09T22:52:25.270Z,11.62
2024-05-09T22:55:28.418Z,11.53
2024-05-09T22:58:34.576Z,11.57
2024-05-09T23:01:37.739Z,11.61
2024-05-09T23:04:43.565Z,11.56
2024-05-09T23:07:49.236Z,11.60
2024-05-09T23:10:55.106Z,11.60
2024-05-09T23:13:58.002Z,11.63
2024-05-09T23:17:03.706Z,11.63
2024-05-09T23:20:11.812Z,11.56
2024-05-09T23:23:20.593Z,11.49
2024-05-09T23:26:26.175Z,11.55
2024-05-09T23:29:29.114Z,11.55
2024-05-09T23:32:34.738Z,11.55
2024-05-09T23:35:37.952Z,11.49
2024-05-09T23:38:47.361Z,11.30
2024-05-09T23:41:50.296Z,11.37
2024-05-09T23:44:58.492Z,11.24
2024-05-09T23:48:01.723Z,11.37
2024-05-09T23:51:07.912Z,11.40
2024-05-09T23:54:13.546Z,11.34
2024-05-09T23:57:19.525Z,11.38
